createdAt,value
2023-01-26T00:00:03.973Z,-1.67
2023-01-26T00:02:32.966Z,-1.65
2023-01-26T00:05:00.908Z,-1.62
2023-01-26T00:07:30.452Z,-1.51
2023-01-26T00:09:58.354Z,-1.45
2023-01-26T00:12:26.749Z,-1.38
2023-01-26T00:14:55.176Z,-1.51
2023-01-26T00:17:27.103Z,-1.48
2023-01-26T00:19:57.586Z,-1.63
2023-01-26T00:22:26.594Z,-1.73
2023-01-26T00:24:54.773Z,-1.70
2023-01-26T00:27:23.645Z,-1.82
2023-01-26T00:29:51.575Z,-1.76
2023-01-26T00:32:19.919Z,-1.69
2023-01-26T00:34:51.278Z,-1.65
2023-01-26T00:37:19.635Z,-1.52
2023-01-26T00:39:47.539Z,-1.47
2023-01-26T00:42:16.410Z,-1.66
2023-01-26T00:44:44.698Z,-1.67
2023-01-26T00:47:15.671Z,-1.66
2023-01-26T00:49:44.912Z,-1.63
2023-01-26T00:52:14.599Z,-1.59
2023-01-26T00:54:43.731Z,-1.56
2023-01-26T00:57:11.748Z,-1.49
2023-01-26T00:59:39.721Z,-1.59
2023-01-26T01:02:08.651Z,-1.60
2023-01-26T01:04:36.696Z,-1.60
2023-01-26T01:07:04.840Z,-1.54
2023-01-26T01:09:35.892Z,-1.48
2023-01-26T01:12:03.978Z,-1.58
2023-01-26T01:14:32.055Z,-1.65
2023-01-26T01:17:00.695Z,-1.70
2023-01-26T01:19:28.641Z,-1.60
2023-01-26T01:21:57.155Z,-1.69
2023-01-26T01:24:28.673Z,-1.67
2023-01-26T01:26:58.024Z,-1.82
2023-01-26T01:29:26.431Z,-1.67
2023-01-26T01:31:54.828Z,-1.79
2023-01-26T01:34:22.898Z,-1.60
2023-01-26T01:36:51.312Z,-1.55
2023-01-26T01:39:19.690Z,-1.56
2023-01-26T01:41:47.673Z,-1.48
2023-01-26T01:44:20.520Z,-1.32
2023-01-26T01:46:52.315Z,-1.41
2023-01-26T01:49:27.200Z,-1.47
2023-01-26T01:52:00.581Z,-1.47
2023-01-26T01:54:33.921Z,-1.20
2023-01-26T01:57:15.719Z,-1.35
2023-01-26T01:59:51.580Z,-1.27
2023-01-26T02:02:19.806Z,-1.32
2023-01-26T02:04:49.262Z,-1.15
2023-01-26T02:07:18.299Z,-1.18
2023-01-26T02:10:03.842Z,-1.20
2023-01-26T02:12:35.211Z,-1.30
2023-01-26T02:15:05.190Z,-1.22
2023-01-26T02:17:35.033Z,-1.15
2023-01-26T02:20:07.643Z,-1.15
2023-01-26T02:22:45.250Z,-1.13
2023-01-26T02:25:24.473Z,-1.13
2023-01-26T02:27:53.915Z,-1.14
2023-01-26T02:30:24.336Z,-1.18
2023-01-26T02:32:54.370Z,-1.20
2023-01-26T02:35:22.543Z,-1.27
2023-01-26T02:37:51.524Z,-1.28
2023-01-26T02:40:27.855Z,-1.41
2023-01-26T02:42:57.934Z,-1.47
2023-01-26T02:45:28.679Z,-1.35
2023-01-26T02:47:58.393Z,-1.42
2023-01-26T02:50:25.800Z,-1.58
2023-01-26T02:52:54.496Z,-1.54
2023-01-26T02:55:23.600Z,-1.41
2023-01-26T02:57:52.532Z,-1.49
2023-01-26T03:00:23.792Z,-1.66
2023-01-26T03:02:54.731Z,-1.67
2023-01-26T03:05:25.810Z,-1.69
2023-01-26T03:07:54.710Z,-1.63
2023-01-26T03:10:27.463Z,-1.72
2023-01-26T03:12:55.458Z,-1.63
2023-01-26T03:15:43.909Z,-1.56
2023-01-26T03:18:32.124Z,-1.47
2023-01-26T03:21:18.893Z,-1.42
2023-01-26T03:24:05.134Z,-1.76
2023-01-26T03:26:52.615Z,-1.49
2023-01-26T03:29:20.824Z,-1.38
2023-01-26T03:31:50.279Z,-1.35
2023-01-26T03:34:20.904Z,-1.37
2023-01-26T03:36:49.940Z,-1.37
2023-01-26T03:39:37.948Z,-1.42
2023-01-26T03:42:24.345Z,-1.59
2023-01-26T03:45:10.545Z,-1.45
2023-01-26T03:48:01.024Z,-1.39
2023-01-26T03:50:49.389Z,-1.42
2023-01-26T03:53:38.503Z,-1.27
2023-01-26T03:56:18.595Z,-1.27
2023-01-26T03:58:49.649Z,-1.25
2023-01-26T04:01:22.153Z,-1.20
2023-01-26T04:04:12.932Z,-1.30
2023-01-26T04:07:01.754Z,-1.27
2023-01-26T04:09:31.368Z,-1.24
2023-01-26T04:12:00.681Z,-1.24
2023-01-26T04:14:49.148Z,-1.22
2023-01-26T04:17:37.576Z,-1.10
2023-01-26T04:20:26.596Z,-1.17
2023-01-26T04:22:54.588Z,-1.21
2023-01-26T04:25:24.095Z,-1.27
2023-01-26T04:27:53.231Z,-1.15
2023-01-26T04:30:22.050Z,-1.10
2023-01-26T04:32:52.262Z,-1.18
2023-01-26T04:35:22.735Z,-1.25
2023-01-26T04:37:50.987Z,-1.34
2023-01-26T04:40:19.394Z,-1.14
2023-01-26T04:42:50.290Z,-1.11
2023-01-26T04:45:18.508Z,-1.08
2023-01-26T04:47:47.970Z,-1.21
2023-01-26T04:50:17.775Z,-1.34
2023-01-26T04:52:49.168Z,-1.28
2023-01-26T04:55:18.106Z,-1.17
2023-01-26T04:57:46.005Z,-1.11
2023-01-26T05:00:15.529Z,-1.27
2023-01-26T05:02:43.755Z,-1.28
2023-01-26T05:05:12.885Z,-1.30
2023-01-26T05:07:41.331Z,-1.10
2023-01-26T05:10:15.525Z,-1.01
2023-01-26T05:13:16.701Z,-1.07
2023-01-26T05:16:06.064Z,-1.15
2023-01-26T05:19:01.439Z,-1.10
2023-01-26T05:21:46.994Z,-1.13
2023-01-26T05:24:16.202Z,-0.99
2023-01-26T05:27:22.411Z,-0.96
2023-01-26T05:29:57.686Z,-1.03
2023-01-26T05:32:27.007Z,-1.17
2023-01-26T05:34:56.041Z,-1.03
2023-01-26T05:37:26.512Z,-1.11
2023-01-26T05:39:56.175Z,-1.11
2023-01-26T05:42:26.405Z,-1.08
2023-01-26T05:45:19.416Z,-1.05
2023-01-26T05:47:48.647Z,-1.20
2023-01-26T05:50:17.127Z,-1.18
2023-01-26T05:53:06.624Z,-1.10
2023-01-26T05:55:37.978Z,-1.14
2023-01-26T05:58:08.262Z,-1.25
2023-01-26T06:00:36.112Z,-1.14
2023-01-26T06:03:10.400Z,-0.99
2023-01-26T06:05:38.857Z,-0.92
2023-01-26T06:08:16.174Z,-1.05
2023-01-26T06:11:09.993Z,-0.97
2023-01-26T06:13:59.265Z,-0.96
2023-01-26T06:16:29.095Z,-0.94
2023-01-26T06:18:57.613Z,-1.00
2023-01-26T06:21:26.004Z,-0.94
2023-01-26T06:23:54.534Z,-0.96
2023-01-26T06:26:24.578Z,-0.79
2023-01-26T06:28:55.283Z,-0.85
2023-01-26T06:31:25.559Z,-0.89
2023-01-26T06:33:54.938Z,-0.89
2023-01-26T06:36:23.628Z,-0.80
2023-01-26T06:38:56.408Z,-0.89
2023-01-26T06:41:25.605Z,-0.82
2023-01-26T06:43:53.819Z,-0.76
2023-01-26T06:46:22.436Z,-0.72
2023-01-26T06:48:53.342Z,-0.80
2023-01-26T06:51:47.792Z,-0.73
2023-01-26T06:54:17.900Z,-0.78
2023-01-26T06:57:14.620Z,-0.80
2023-01-26T07:00:02.314Z,-0.72
2023-01-26T07:02:45.190Z,-0.52
2023-01-26T07:05:15.426Z,-0.44
2023-01-26T07:07:43.525Z,-0.65
2023-01-26T07:10:12.363Z,-0.57
2023-01-26T07:12:42.981Z,-0.58
2023-01-26T07:15:11.400Z,-0.61
2023-01-26T07:17:39.547Z,-0.45
2023-01-26T07:20:12.460Z,-0.64
2023-01-26T07:22:41.926Z,-0.48
2023-01-26T07:25:10.143Z,-0.42
2023-01-26T07:27:38.574Z,-0.61
2023-01-26T07:30:07.771Z,-0.54
2023-01-26T07:32:36.183Z,-0.45
2023-01-26T07:35:04.638Z,-0.54
2023-01-26T07:37:32.698Z,-0.54
2023-01-26T07:40:01.957Z,-0.44
2023-01-26T07:42:31.457Z,-0.33
2023-01-26T07:45:09.747Z,-0.34
2023-01-26T07:47:38.723Z,-0.44
2023-01-26T07:50:07.961Z,-0.45
2023-01-26T07:52:36.089Z,-0.47
2023-01-26T07:55:06.750Z,-0.47
2023-01-26T07:57:35.074Z,-0.44
2023-01-26T08:00:04.129Z,-0.37
2023-01-26T08:02:40.265Z,-0.38
2023-01-26T08:05:09.152Z,-0.50
2023-01-26T08:07:37.081Z,-0.25
2023-01-26T08:10:08.126Z,-0.41
2023-01-26T08:12:40.149Z,-0.14
2023-01-26T08:15:11.075Z,-0.07
2023-01-26T08:17:38.971Z,-0.20
2023-01-26T08:20:08.427Z,-0.02
2023-01-26T08:22:36.409Z,0.07
2023-01-26T08:25:06.340Z,-0.02
2023-01-26T08:27:34.151Z,0.00
2023-01-26T08:30:02.518Z,0.26
2023-01-26T08:32:31.190Z,0.18
2023-01-26T08:34:59.129Z,0.05
2023-01-26T08:37:27.537Z,-0.02
2023-01-26T08:39:55.448Z,0.01
2023-01-26T08:42:25.951Z,0.00
2023-01-26T08:44:54.067Z,-0.05
2023-01-26T08:47:21.999Z,0.03
2023-01-26T08:49:50.390Z,0.29
2023-01-26T08:52:18.224Z,0.08
2023-01-26T08:54:46.599Z,0.00
2023-01-26T08:57:15.144Z,-0.25
2023-01-26T08:59:44.512Z,-0.13
2023-01-26T09:02:12.644Z,-0.16
2023-01-26T09:04:41.541Z,-0.20
2023-01-26T09:07:10.415Z,-0.44
2023-01-26T09:09:41.147Z,-0.42
2023-01-26T09:12:09.576Z,-0.23
2023-01-26T09:14:37.520Z,-0.28
2023-01-26T09:17:06.760Z,0.00
2023-01-26T09:19:35.640Z,-0.02
2023-01-26T09:22:03.465Z,0.12
2023-01-26T09:24:31.784Z,0.12
2023-01-26T09:26:59.695Z,0.11
2023-01-26T09:29:28.105Z,0.25
2023-01-26T09:31:56.052Z,0.19
2023-01-26T09:34:26.452Z,0.21
2023-01-26T09:36:54.197Z,0.36
2023-01-26T09:39:22.164Z,0.28
2023-01-26T09:42:06.102Z,0.57
2023-01-26T09:44:41.683Z,0.41
2023-01-26T09:47:19.513Z,0.50
2023-01-26T09:49:55.604Z,0.44
2023-01-26T09:52:28.655Z,0.25
2023-01-26T09:55:00.908Z,0.35
2023-01-26T09:57:33.886Z,0.21
2023-01-26T10:00:09.269Z,0.24
2023-01-26T10:02:55.066Z,0.48
2023-01-26T10:05:33.693Z,0.36
2023-01-26T10:08:13.256Z,0.41
2023-01-26T10:10:45.531Z,0.44
2023-01-26T10:13:18.221Z,0.41
2023-01-26T10:15:49.919Z,0.24
2023-01-26T10:18:21.183Z,0.35
2023-01-26T10:20:53.011Z,0.42
2023-01-26T10:23:24.339Z,0.29
2023-01-26T10:25:54.621Z,0.59
2023-01-26T10:28:28.738Z,0.53
2023-01-26T10:30:58.463Z,0.62
2023-01-26T10:33:29.032Z,0.73
2023-01-26T10:36:00.749Z,0.46
2023-01-26T10:38:43.157Z,0.60
2023-01-26T10:41:28.700Z,0.57
2023-01-26T10:43:59.142Z,0.39
2023-01-26T10:46:34.200Z,0.41
2023-01-26T10:49:14.844Z,0.50
2023-01-26T10:51:46.599Z,0.46
2023-01-26T10:54:20.616Z,0.74
2023-01-26T10:56:51.401Z,0.72
2023-01-26T10:59:27.482Z,0.74
2023-01-26T11:02:01.970Z,0.62
2023-01-26T11:04:33.357Z,0.88
2023-01-26T11:07:27.213Z,0.74
2023-01-26T11:09:57.324Z,0.92
2023-01-26T11:12:27.113Z,0.91
2023-01-26T11:15:03.230Z,0.79
2023-01-26T11:17:37.269Z,0.69
2023-01-26T11:20:26.998Z,0.55
2023-01-26T11:23:05.748Z,0.74
2023-01-26T11:25:41.917Z,0.97
2023-01-26T11:28:27.946Z,1.16
2023-01-26T11:31:12.046Z,1.24
2023-01-26T11:33:46.902Z,0.95
2023-01-26T11:36:23.762Z,0.73
2023-01-26T11:39:02.275Z,0.66
2023-01-26T11:41:42.307Z,0.97
2023-01-26T11:44:44.479Z,0.98
2023-01-26T11:47:25.805Z,0.95
2023-01-26T11:50:19.334Z,0.90
2023-01-26T11:52:57.767Z,1.04
2023-01-26T11:55:38.192Z,1.15
2023-01-26T11:58:14.531Z,1.15
2023-01-26T12:00:45.659Z,1.12
2023-01-26T12:03:21.907Z,0.95
2023-01-26T12:05:55.637Z,1.19
2023-01-26T12:08:27.413Z,1.04
2023-01-26T12:11:22.963Z,1.12
2023-01-26T12:14:00.777Z,1.35
2023-01-26T12:16:39.376Z,1.15
2023-01-26T12:19:13.895Z,1.12
2023-01-26T12:21:45.751Z,1.09
2023-01-26T12:24:46.769Z,1.12
2023-01-26T12:27:20.831Z,0.98
2023-01-26T12:29:55.492Z,1.05
2023-01-26T12:32:24.972Z,0.90
2023-01-26T12:34:52.961Z,0.97
2023-01-26T12:37:38.006Z,1.02
2023-01-26T12:40:17.563Z,1.01
2023-01-26T12:42:54.757Z,1.09
2023-01-26T12:45:29.767Z,0.98
2023-01-26T12:48:07.381Z,1.09
2023-01-26T12:50:39.813Z,1.14
2023-01-26T12:53:14.770Z,1.11
2023-01-26T12:55:47.419Z,1.14
2023-01-26T12:58:23.559Z,1.31
2023-01-26T13:00:54.268Z,1.38
2023-01-26T13:03:30.396Z,1.50
2023-01-26T13:06:02.010Z,1.49
2023-01-26T13:08:54.059Z,1.25
2023-01-26T13:11:53.425Z,1.40
2023-01-26T13:15:00.967Z,1.50
2023-01-26T13:18:00.404Z,1.26
2023-01-26T13:20:45.240Z,1.35
2023-01-26T13:23:52.480Z,1.43
2023-01-26T13:26:53.158Z,1.57
2023-01-26T13:29:32.794Z,1.59
2023-01-26T13:32:24.333Z,1.78
2023-01-26T13:34:57.434Z,1.73
2023-01-26T13:37:33.818Z,1.74
2023-01-26T13:40:06.101Z,1.57
2023-01-26T13:42:39.287Z,1.49
2023-01-26T13:45:17.990Z,1.43
2023-01-26T13:47:50.797Z,1.39
2023-01-26T13:50:31.051Z,1.44
2023-01-26T13:53:00.212Z,1.46
2023-01-26T13:55:31.639Z,1.39
2023-01-26T13:58:12.888Z,1.39
2023-01-26T14:00:41.021Z,1.39
2023-01-26T14:03:23.498Z,1.32
2023-01-26T14:05:54.923Z,1.44
2023-01-26T14:08:24.216Z,1.38
2023-01-26T14:10:53.313Z,1.50
2023-01-26T14:13:25.760Z,1.43
2023-01-26T14:15:58.377Z,1.47
2023-01-26T14:18:30.356Z,1.53
2023-01-26T14:21:01.148Z,1.50
2023-01-26T14:23:29.335Z,1.52
2023-01-26T14:26:01.833Z,1.47
2023-01-26T14:28:32.236Z,1.52
2023-01-26T14:31:08.111Z,1.60
2023-01-26T14:33:38.492Z,1.66
2023-01-26T14:36:09.527Z,1.43
2023-01-26T14:38:44.085Z,1.67
2023-01-26T14:41:22.165Z,1.80
2023-01-26T14:43:50.430Z,1.84
2023-01-26T14:46:20.765Z,1.77
2023-01-26T14:48:55.802Z,1.78
2023-01-26T14:51:26.424Z,1.77
2023-01-26T14:53:58.270Z,1.66
2023-01-26T14:56:34.312Z,1.75
2023-01-26T14:59:04.027Z,1.82
2023-01-26T15:01:32.505Z,1.87
2023-01-26T15:04:04.855Z,1.93
2023-01-26T15:06:34.025Z,1.93
2023-01-26T15:09:05.735Z,1.87
2023-01-26T15:11:54.022Z,1.71
2023-01-26T15:14:38.533Z,1.82
2023-01-26T15:17:08.501Z,1.87
2023-01-26T15:19:43.768Z,1.91
2023-01-26T15:22:23.299Z,1.91
2023-01-26T15:25:02.379Z,2.06
2023-01-26T15:27:36.611Z,2.12
2023-01-26T15:30:08.057Z,2.21
2023-01-26T15:32:41.365Z,2.18
2023-01-26T15:35:27.321Z,1.98
2023-01-26T15:38:04.102Z,1.93
2023-01-26T15:40:32.923Z,1.89
2023-01-26T15:43:22.022Z,1.99
2023-01-26T15:45:52.677Z,2.04
2023-01-26T15:48:24.620Z,1.88
2023-01-26T15:50:54.341Z,1.94
2023-01-26T15:53:23.436Z,2.09
2023-01-26T15:55:55.699Z,2.22
2023-01-26T15:58:24.115Z,2.25
2023-01-26T16:00:53.434Z,2.30
2023-01-26T16:03:22.970Z,2.33
2023-01-26T16:05:50.947Z,2.28
2023-01-26T16:08:21.818Z,2.34
2023-01-26T16:10:49.929Z,2.40
2023-01-26T16:13:19.764Z,2.32
2023-01-26T16:15:50.911Z,2.34
2023-01-26T16:18:19.480Z,2.34
2023-01-26T16:20:48.978Z,2.29
2023-01-26T16:23:24.019Z,2.32
2023-01-26T16:25:52.807Z,2.25
2023-01-26T16:28:21.294Z,2.30
2023-01-26T16:30:52.229Z,2.26
2023-01-26T16:33:22.049Z,2.29
2023-01-26T16:35:50.449Z,2.30
2023-01-26T16:38:20.818Z,2.40
2023-01-26T16:40:49.503Z,2.40
2023-01-26T16:43:23.782Z,2.57
2023-01-26T16:45:52.504Z,2.62
2023-01-26T16:48:21.020Z,2.71
2023-01-26T16:50:52.952Z,2.70
2023-01-26T16:53:26.747Z,2.54
2023-01-26T16:55:55.954Z,2.60
2023-01-26T16:58:26.409Z,2.51
2023-01-26T17:00:58.688Z,2.47
2023-01-26T17:03:27.185Z,2.62
2023-01-26T17:05:56.411Z,2.61
2023-01-26T17:08:26.233Z,2.50
2023-01-26T17:11:02.023Z,2.60
2023-01-26T17:13:31.715Z,2.62
2023-01-26T17:15:59.802Z,2.57
2023-01-26T17:18:28.210Z,2.60
2023-01-26T17:21:03.510Z,2.78
2023-01-26T17:23:32.921Z,2.54
2023-01-26T17:26:01.784Z,2.60
2023-01-26T17:28:30.208Z,2.68
2023-01-26T17:31:01.032Z,2.61
2023-01-26T17:33:32.642Z,2.81
2023-01-26T17:36:01.564Z,2.74
2023-01-26T17:38:30.078Z,2.74
2023-01-26T17:41:00.585Z,2.87
2023-01-26T17:43:29.579Z,2.92
2023-01-26T17:46:08.699Z,2.89
2023-01-26T17:48:37.565Z,2.87
2023-01-26T17:51:10.076Z,3.02
2023-01-26T17:53:39.027Z,2.85
2023-01-26T17:56:10.502Z,2.77
2023-01-26T17:58:39.212Z,2.84
2023-01-26T18:01:09.444Z,2.85
2023-01-26T18:03:42.622Z,2.61
2023-01-26T18:06:11.425Z,2.81
2023-01-26T18:08:40.518Z,2.61
2023-01-26T18:11:12.528Z,2.60
2023-01-26T18:13:40.685Z,2.67
2023-01-26T18:16:10.623Z,2.70
2023-01-26T18:18:39.641Z,2.65
2023-01-26T18:21:16.863Z,2.50
2023-01-26T18:23:47.351Z,2.74
2023-01-26T18:26:18.274Z,2.81
2023-01-26T18:28:47.391Z,2.75
2023-01-26T18:31:17.260Z,2.78
2023-01-26T18:33:46.258Z,2.83
2023-01-26T18:36:16.982Z,2.85
2023-01-26T18:38:49.438Z,2.87
2023-01-26T18:41:21.600Z,3.01
2023-01-26T18:43:51.452Z,2.96
2023-01-26T18:46:20.533Z,3.06
2023-01-26T18:48:48.906Z,3.05
2023-01-26T18:51:18.204Z,3.09
2023-01-26T18:53:46.502Z,3.01
2023-01-26T18:56:17.676Z,3.03
2023-01-26T18:58:47.047Z,3.02
2023-01-26T19:01:19.157Z,3.03
2023-01-26T19:03:47.779Z,3.01
2023-01-26T19:06:18.251Z,3.01
2023-01-26T19:08:47.571Z,3.01
2023-01-26T19:11:15.641Z,3.19
2023-01-26T19:13:49.334Z,3.30
2023-01-26T19:16:17.360Z,3.23
2023-01-26T19:18:45.320Z,3.31
2023-01-26T19:21:14.154Z,3.33
2023-01-26T19:23:42.754Z,3.34
2023-01-26T19:26:13.834Z,3.30
2023-01-26T19:28:42.077Z,3.33
2023-01-26T19:31:11.844Z,3.30
2023-01-26T19:33:43.271Z,3.26
2023-01-26T19:36:11.732Z,3.37
2023-01-26T19:38:40.490Z,3.43
2023-01-26T19:41:08.910Z,3.31
2023-01-26T19:43:37.198Z,3.29
2023-01-26T19:46:08.296Z,3.33
2023-01-26T19:48:38.179Z,3.31
2023-01-26T19:51:08.727Z,3.27
2023-01-26T19:53:39.070Z,3.22
2023-01-26T19:56:08.189Z,3.19
2023-01-26T19:58:36.134Z,3.15
2023-01-26T20:01:09.657Z,3.08
2023-01-26T20:03:39.851Z,3.16
2023-01-26T20:06:15.192Z,3.15
2023-01-26T20:08:43.325Z,3.09
2023-01-26T20:11:11.813Z,3.09
2023-01-26T20:13:40.442Z,3.05
2023-01-26T20:16:08.987Z,3.06
2023-01-26T20:18:38.537Z,3.05
2023-01-26T20:21:08.428Z,3.06
2023-01-26T20:23:37.564Z,3.02
2023-01-26T20:26:07.412Z,3.09
2023-01-26T20:28:36.637Z,3.05
2023-01-26T20:31:06.660Z,3.05
2023-01-26T20:33:36.000Z,2.95
2023-01-26T20:36:08.456Z,2.87
2023-01-26T20:38:36.787Z,2.87
2023-01-26T20:41:08.839Z,2.95
2023-01-26T20:43:39.502Z,2.92
2023-01-26T20:46:12.551Z,3.03
2023-01-26T20:48:41.076Z,3.06
2023-01-26T20:51:15.635Z,3.10
2023-01-26T20:53:43.664Z,3.02
2023-01-26T20:56:13.301Z,3.08
2023-01-26T20:58:43.058Z,3.05
2023-01-26T21:01:13.495Z,3.10
2023-01-26T21:03:42.810Z,3.10
2023-01-26T21:06:14.832Z,3.09
2023-01-26T21:08:44.066Z,3.08
2023-01-26T21:11:15.147Z,3.18
2023-01-26T21:13:44.708Z,3.05
2023-01-26T21:16:15.162Z,3.02
2023-01-26T21:18:44.626Z,3.09
2023-01-26T21:21:17.642Z,3.05
2023-01-26T21:23:47.142Z,3.05
2023-01-26T21:26:16.742Z,3.02
2023-01-26T21:28:45.201Z,2.99
2023-01-26T21:31:15.386Z,2.92
2023-01-26T21:33:46.805Z,2.96
2023-01-26T21:36:18.286Z,2.96
2023-01-26T21:38:48.472Z,3.01
2023-01-26T21:41:38.175Z,3.06
2023-01-26T21:44:08.320Z,3.02
2023-01-26T21:46:37.894Z,2.99
2023-01-26T21:49:06.963Z,2.87
2023-01-26T21:51:54.889Z,2.87
2023-01-26T21:54:23.057Z,2.81
2023-01-26T21:56:51.158Z,2.75
2023-01-26T21:59:20.097Z,2.74
2023-01-26T22:01:50.145Z,2.77
2023-01-26T22:04:21.738Z,2.73
2023-01-26T22:06:52.092Z,2.68
2023-01-26T22:09:21.730Z,2.70
2023-01-26T22:11:50.660Z,2.62
2023-01-26T22:14:20.453Z,2.51
2023-01-26T22:16:51.670Z,2.36
2023-01-26T22:19:19.886Z,2.34
2023-01-26T22:21:48.093Z,2.44
2023-01-26T22:24:19.525Z,2.40
2023-01-26T22:26:48.243Z,2.37
2023-01-26T22:29:16.167Z,2.37
2023-01-26T22:31:44.992Z,2.23
2023-01-26T22:34:12.930Z,2.47
2023-01-26T22:36:41.454Z,2.47
2023-01-26T22:39:09.497Z,2.51
2023-01-26T22:41:41.109Z,2.46
2023-01-26T22:44:09.464Z,2.21
2023-01-26T22:46:37.988Z,2.39
2023-01-26T22:49:06.948Z,2.50
2023-01-26T22:51:37.148Z,2.56
2023-01-26T22:54:06.851Z,2.37
2023-01-26T22:56:34.877Z,2.39
2023-01-26T22:59:05.294Z,2.34
2023-01-26T23:01:35.077Z,2.28
2023-01-26T23:04:03.497Z,2.23
2023-01-26T23:06:31.755Z,2.22
2023-01-26T23:09:01.264Z,2.15
2023-01-26T23:11:30.468Z,2.32
2023-01-26T23:14:00.512Z,2.26
2023-01-26T23:16:31.606Z,2.29
2023-01-26T23:19:00.655Z,2.29
2023-01-26T23:21:30.067Z,2.36
2023-01-26T23:23:58.681Z,2.13
2023-01-26T23:26:26.767Z,2.12
2023-01-26T23:28:56.737Z,2.13
2023-01-26T23:31:27.707Z,2.21
2023-01-26T23:33:57.821Z,2.12
2023-01-26T23:36:26.351Z,2.16
2023-01-26T23:38:54.846Z,2.22
2023-01-26T23:41:23.487Z,2.19
2023-01-26T23:43:51.577Z,2.28
2023-01-26T23:46:19.483Z,2.19
2023-01-26T23:48:48.268Z,2.18
2023-01-26T23:51:17.547Z,2.11
2023-01-26T23:53:45.975Z,2.05
2023-01-26T23:56:17.093Z,2.12
2023-01-26T23:58:46.870Z,2.16
